createdAt,value
2022-08-02T00:00:41.285Z,46.44
2022-08-02T00:03:08.152Z,46.64
2022-08-02T00:05:35.040Z,47.03
2022-08-02T00:08:01.964Z,47.04
2022-08-02T00:10:28.827Z,46.93
2022-08-02T00:12:58.355Z,47.17
2022-08-02T00:15:25.295Z,47.13
2022-08-02T00:17:52.731Z,47.28
2022-08-02T00:20:19.612Z,47.24
2022-08-02T00:22:46.413Z,47.41
2022-08-02T00:25:13.166Z,47.76
2022-08-02T00:27:40.058Z,47.60
2022-08-02T00:30:07.867Z,47.72
2022-08-02T00:32:34.626Z,47.84
2022-08-02T00:35:01.443Z,47.99
2022-08-02T00:37:28.912Z,48.15
2022-08-02T00:39:55.995Z,47.71
2022-08-02T00:42:22.777Z,47.87
2022-08-02T00:44:49.603Z,48.15
2022-08-02T00:47:19.549Z,48.21
2022-08-02T00:49:47.366Z,48.42
2022-08-02T00:52:15.028Z,48.41
2022-08-02T00:54:42.033Z,48.43
2022-08-02T00:57:09.211Z,48.47
2022-08-02T00:59:36.363Z,48.61
2022-08-02T01:02:03.133Z,48.82
2022-08-02T01:04:32.027Z,48.78
2022-08-02T01:07:01.719Z,48.92
2022-08-02T01:09:28.652Z,48.97
2022-08-02T01:11:55.488Z,48.63
2022-08-02T01:14:25.199Z,48.94
2022-08-02T01:17:07.136Z,48.62
2022-08-02T01:19:39.928Z,49.02
2022-08-02T01:22:15.694Z,49.30
2022-08-02T01:24:54.483Z,48.78
2022-08-02T01:27:38.858Z,49.02
2022-08-02T01:30:08.069Z,49.07
2022-08-02T01:32:51.145Z,49.44
2022-08-02T01:35:30.894Z,49.18
2022-08-02T01:38:26.859Z,49.44
2022-08-02T01:41:01.546Z,49.63
2022-08-02T01:43:31.720Z,49.31
2022-08-02T01:46:02.234Z,49.65
2022-08-02T01:48:32.387Z,49.92
2022-08-02T01:51:02.185Z,50.24
2022-08-02T01:53:30.808Z,50.29
2022-08-02T01:56:01.516Z,50.28
2022-08-02T01:58:32.650Z,50.22
2022-08-02T02:01:00.233Z,50.79
2022-08-02T02:03:30.196Z,50.59
2022-08-02T02:05:59.920Z,50.84
2022-08-02T02:08:38.053Z,50.78
2022-08-02T02:12:11.559Z,50.69
2022-08-02T02:14:05.348Z,50.82
2022-08-02T02:16:34.034Z,50.65
2022-08-02T02:19:03.655Z,50.74
2022-08-02T02:21:31.390Z,51.02
2022-08-02T02:23:59.987Z,51.03
2022-08-02T02:26:31.723Z,51.09
2022-08-02T02:29:03.664Z,50.95
2022-08-02T02:31:36.929Z,50.94
2022-08-02T02:34:11.128Z,51.03
2022-08-02T02:36:46.845Z,51.14
2022-08-02T02:39:16.266Z,51.43
2022-08-02T02:41:44.432Z,51.29
2022-08-02T02:44:16.759Z,51.50
2022-08-02T02:46:44.945Z,51.21
2022-08-02T02:49:13.687Z,51.21
2022-08-02T02:51:42.607Z,51.39
2022-08-02T02:54:32.902Z,51.24
2022-08-02T02:57:00.658Z,51.64
2022-08-02T02:59:28.725Z,51.85
2022-08-02T03:01:58.317Z,51.82
2022-08-02T03:04:56.083Z,51.90
2022-08-02T03:07:17.800Z,52.35
2022-08-02T03:09:47.317Z,52.15
2022-08-02T03:12:27.176Z,52.10
2022-08-02T03:14:59.872Z,52.22
2022-08-02T03:17:38.742Z,52.11
2022-08-02T03:20:11.891Z,52.21
2022-08-02T03:22:39.657Z,52.20
2022-08-02T03:25:08.118Z,52.41
2022-08-02T03:27:35.239Z,52.70
2022-08-02T03:30:02.285Z,52.85
2022-08-02T03:32:29.107Z,53.04
2022-08-02T03:34:56.789Z,53.09
2022-08-02T03:37:24.897Z,53.16
2022-08-02T03:39:54.433Z,53.31
2022-08-02T03:42:28.640Z,53.49
2022-08-02T03:45:06.214Z,53.32
2022-08-02T03:47:37.977Z,53.48
2022-08-02T03:50:06.486Z,53.36
2022-08-02T03:52:34.823Z,53.52
2022-08-02T03:55:02.772Z,53.35
2022-08-02T03:57:30.681Z,53.49
2022-08-02T03:59:57.488Z,53.46
2022-08-02T04:02:24.406Z,53.75
2022-08-02T04:04:51.258Z,54.14
2022-08-02T04:08:33.099Z,53.84
2022-08-02T04:10:06.276Z,54.53
2022-08-02T04:12:33.023Z,54.30
2022-08-02T04:15:00.646Z,54.40
2022-08-02T04:17:31.916Z,54.14
2022-08-02T04:20:08.502Z,54.14
2022-08-02T04:22:46.103Z,54.44
2022-08-02T04:25:17.437Z,54.27
2022-08-02T04:27:51.278Z,54.39
2022-08-02T04:30:34.616Z,54.87
2022-08-02T04:33:02.497Z,54.43
2022-08-02T04:35:29.607Z,54.37
2022-08-02T04:38:08.798Z,54.16
2022-08-02T04:40:38.860Z,54.78
2022-08-02T04:43:05.771Z,54.42
2022-08-02T04:45:33.552Z,54.32
2022-08-02T04:48:07.667Z,54.67
2022-08-02T04:50:35.970Z,54.59
2022-08-02T04:53:02.856Z,54.88
2022-08-02T04:55:30.254Z,54.82
2022-08-02T04:57:59.775Z,54.75
2022-08-02T05:00:29.033Z,55.01
2022-08-02T05:02:57.862Z,54.87
2022-08-02T05:05:24.912Z,54.65
2022-08-02T05:07:51.954Z,54.79
2022-08-02T05:10:20.842Z,54.64
2022-08-02T05:12:47.691Z,54.71
2022-08-02T05:15:17.394Z,54.79
2022-08-02T05:17:48.917Z,54.65
2022-08-02T05:20:20.898Z,54.86
2022-08-02T05:22:47.778Z,54.40
2022-08-02T05:25:15.463Z,54.69
2022-08-02T05:27:42.549Z,54.65
2022-08-02T05:30:10.773Z,54.63
2022-08-02T05:32:54.001Z,55.08
2022-08-02T05:35:22.942Z,55.16
2022-08-02T05:37:51.233Z,54.77
2022-08-02T05:40:25.781Z,54.65
2022-08-02T05:42:53.897Z,55.10
2022-08-02T05:45:20.810Z,54.77
2022-08-02T05:47:48.495Z,54.65
2022-08-02T05:50:15.520Z,54.87
2022-08-02T05:52:47.239Z,54.71
2022-08-02T05:55:18.425Z,55.32
2022-08-02T05:57:52.656Z,55.25
2022-08-02T06:00:21.141Z,54.93
2022-08-02T06:03:16.965Z,54.97
2022-08-02T06:06:00.591Z,55.08
2022-08-02T06:08:47.393Z,54.95
2022-08-02T06:11:18.059Z,54.89
2022-08-02T06:13:46.300Z,54.52
2022-08-02T06:16:14.997Z,54.57
2022-08-02T06:18:43.844Z,54.76
2022-08-02T06:22:35.677Z,54.60
2022-08-02T06:24:01.202Z,54.99
2022-08-02T06:26:29.679Z,54.61
2022-08-02T06:28:58.201Z,54.56
2022-08-02T06:31:26.125Z,54.42
2022-08-02T06:33:53.306Z,54.47
2022-08-02T06:36:38.668Z,54.59
2022-08-02T06:39:15.168Z,54.83
2022-08-02T06:41:44.694Z,54.57
2022-08-02T06:44:45.988Z,54.38
2022-08-02T06:47:11.822Z,54.02
2022-08-02T06:49:52.600Z,54.30
2022-08-02T06:52:30.638Z,53.93
2022-08-02T06:55:02.437Z,54.03
2022-08-02T06:57:31.021Z,54.16
2022-08-02T07:00:01.684Z,54.01
2022-08-02T07:02:29.994Z,53.98
2022-08-02T07:04:56.965Z,54.05
2022-08-02T07:07:24.053Z,53.80
2022-08-02T07:10:00.191Z,53.77
2022-08-02T07:12:34.562Z,53.65
2022-08-02T07:15:03.902Z,52.47
2022-08-02T07:17:31.515Z,51.71
2022-08-02T07:19:59.468Z,51.12
2022-08-02T07:22:27.589Z,51.01
2022-08-02T07:24:56.947Z,50.18
2022-08-02T07:27:25.034Z,50.07
2022-08-02T07:29:52.527Z,49.85
2022-08-02T07:32:22.150Z,49.65
2022-08-02T07:34:52.994Z,49.33
2022-08-02T07:37:35.486Z,48.83
2022-08-02T07:40:14.630Z,48.98
2022-08-02T07:42:43.998Z,48.59
2022-08-02T07:45:12.819Z,48.60
2022-08-02T07:47:45.523Z,48.39
2022-08-02T07:50:14.204Z,48.40
2022-08-02T07:52:42.703Z,48.09
2022-08-02T07:55:10.558Z,47.08
2022-08-02T07:57:42.508Z,46.23
2022-08-02T08:00:13.910Z,45.36
2022-08-02T08:02:40.931Z,45.34
2022-08-02T08:05:08.461Z,45.00
2022-08-02T08:07:35.885Z,45.12
2022-08-02T08:10:03.727Z,44.96
2022-08-02T08:12:40.366Z,45.06
2022-08-02T08:15:07.748Z,44.23
2022-08-02T08:17:35.809Z,44.18
2022-08-02T08:20:05.270Z,44.16
2022-08-02T08:22:32.168Z,44.19
2022-08-02T08:24:58.969Z,43.78
2022-08-02T08:27:25.970Z,43.49
2022-08-02T08:29:52.753Z,43.43
2022-08-02T08:32:21.651Z,43.06
2022-08-02T08:34:49.791Z,42.90
2022-08-02T08:37:18.006Z,43.44
2022-08-02T08:39:58.287Z,42.73
2022-08-02T08:42:31.491Z,42.17
2022-08-02T08:45:00.290Z,41.31
2022-08-02T08:47:35.273Z,41.58
2022-08-02T08:50:05.693Z,40.66
2022-08-02T08:52:37.480Z,40.21
2022-08-02T08:55:05.883Z,40.56
2022-08-02T08:57:37.545Z,40.31
2022-08-02T09:00:05.558Z,39.98
2022-08-02T09:02:35.367Z,40.01
2022-08-02T09:05:02.216Z,39.53
2022-08-02T09:07:28.993Z,39.83
2022-08-02T09:09:55.853Z,39.63
2022-08-02T09:12:25.244Z,39.69
2022-08-02T09:15:05.468Z,39.45
2022-08-02T09:17:32.316Z,38.90
2022-08-02T09:20:09.467Z,38.56
2022-08-02T09:22:36.329Z,38.35
2022-08-02T09:25:03.063Z,38.49
2022-08-02T09:27:36.325Z,38.67
2022-08-02T09:30:13.129Z,37.54
2022-08-02T09:32:48.517Z,37.23
2022-08-02T09:36:06.313Z,36.77
2022-08-02T09:38:21.546Z,36.71
2022-08-02T09:40:48.334Z,37.43
2022-08-02T09:43:16.572Z,36.72
2022-08-02T09:45:43.769Z,36.63
2022-08-02T09:48:10.548Z,36.80
2022-08-02T09:50:39.509Z,36.83
2022-08-02T09:53:13.117Z,36.87
2022-08-02T09:55:41.622Z,36.29
2022-08-02T09:58:21.483Z,36.93
2022-08-02T10:01:01.944Z,36.98
2022-08-02T10:03:35.174Z,36.82
2022-08-02T10:06:04.566Z,36.40
2022-08-02T10:08:33.766Z,36.15
2022-08-02T10:11:02.601Z,35.79
2022-08-02T10:13:36.203Z,36.00
2022-08-02T10:16:04.309Z,35.17
2022-08-02T10:18:40.668Z,35.22
2022-08-02T10:21:17.202Z,34.80
2022-08-02T10:23:45.704Z,34.89
2022-08-02T10:26:19.244Z,34.80
2022-08-02T10:28:48.138Z,34.54
2022-08-02T10:31:20.801Z,34.86
2022-08-02T10:33:50.645Z,34.81
2022-08-02T10:36:19.438Z,35.17
2022-08-02T10:38:47.453Z,35.29
2022-08-02T10:41:14.240Z,34.62
2022-08-02T10:43:48.296Z,34.70
2022-08-02T10:46:32.652Z,34.62
2022-08-02T10:49:38.687Z,33.90
2022-08-02T10:52:03.111Z,33.82
2022-08-02T10:55:13.517Z,33.88
2022-08-02T10:57:41.923Z,34.09
2022-08-02T11:00:19.995Z,34.18
2022-08-02T11:02:53.176Z,34.48
2022-08-02T11:05:43.177Z,34.58
2022-08-02T11:08:19.923Z,33.72
2022-08-02T11:10:46.979Z,33.18
2022-08-02T11:13:16.261Z,33.10
2022-08-02T11:15:49.905Z,33.25
2022-08-02T11:18:17.605Z,33.50
2022-08-02T11:20:44.439Z,33.51
2022-08-02T11:23:44.420Z,33.61
2022-08-02T11:26:30.486Z,33.19
2022-08-02T11:29:01.866Z,32.84
2022-08-02T11:31:31.288Z,32.79
2022-08-02T11:33:58.015Z,32.62
2022-08-02T11:36:24.989Z,32.65
2022-08-02T11:39:09.217Z,32.21
2022-08-02T11:41:46.219Z,32.14
2022-08-02T11:44:14.263Z,32.05
2022-08-02T11:46:41.404Z,32.09
2022-08-02T11:49:19.323Z,32.15
2022-08-02T11:52:05.574Z,31.95
2022-08-02T11:54:37.975Z,32.24
2022-08-02T11:57:20.304Z,31.90
2022-08-02T11:59:52.933Z,31.03
2022-08-02T12:02:21.896Z,31.40
2022-08-02T12:04:57.922Z,31.85
2022-08-02T12:07:34.580Z,31.86
2022-08-02T12:10:09.120Z,32.22
2022-08-02T12:12:54.262Z,32.36
2022-08-02T12:15:42.408Z,32.13
2022-08-02T12:18:35.854Z,31.84
2022-08-02T12:21:03.231Z,31.74
2022-08-02T12:23:30.409Z,31.30
2022-08-02T12:26:15.990Z,31.01
2022-08-02T12:28:47.024Z,30.82
2022-08-02T12:31:14.759Z,31.20
2022-08-02T12:33:49.039Z,31.10
2022-08-02T12:36:30.111Z,31.26
2022-08-02T12:38:59.196Z,30.66
2022-08-02T12:41:31.542Z,30.95
2022-08-02T12:44:01.925Z,30.94
2022-08-02T12:46:29.947Z,30.96
2022-08-02T12:49:16.549Z,30.91
2022-08-02T12:51:56.689Z,30.15
2022-08-02T12:54:31.519Z,30.69
2022-08-02T12:57:12.913Z,30.41
2022-08-02T12:59:41.753Z,30.27
2022-08-02T13:02:12.780Z,30.46
2022-08-02T13:04:40.348Z,30.51
2022-08-02T13:07:11.991Z,30.41
2022-08-02T13:09:41.222Z,30.47
2022-08-02T13:12:08.895Z,30.51
2022-08-02T13:14:40.997Z,30.43
2022-08-02T13:17:09.678Z,30.16
2022-08-02T13:19:37.191Z,30.00
2022-08-02T13:22:04.357Z,29.93
2022-08-02T13:24:37.939Z,29.75
2022-08-02T13:27:08.248Z,29.87
2022-08-02T13:29:36.943Z,30.13
2022-08-02T13:32:03.913Z,29.81
2022-08-02T13:34:30.814Z,29.73
2022-08-02T13:37:00.007Z,29.78
2022-08-02T13:39:26.768Z,29.54
2022-08-02T13:41:54.449Z,29.53
2022-08-02T13:44:21.955Z,29.58
2022-08-02T13:46:48.946Z,29.61
2022-08-02T13:49:19.522Z,29.48
2022-08-02T13:51:51.483Z,29.37
2022-08-02T13:54:18.247Z,29.15
2022-08-02T13:56:45.228Z,29.49
2022-08-02T13:59:54.377Z,29.00
2022-08-02T14:02:00.402Z,29.27
2022-08-02T14:04:27.986Z,29.50
2022-08-02T14:06:58.013Z,29.69
2022-08-02T14:09:27.249Z,29.44
2022-08-02T14:11:54.309Z,29.39
2022-08-02T14:14:21.230Z,29.62
2022-08-02T14:16:53.457Z,29.66
2022-08-02T14:19:22.059Z,29.19
2022-08-02T14:21:49.400Z,28.92
2022-08-02T14:24:17.424Z,29.16
2022-08-02T14:26:45.700Z,29.38
2022-08-02T14:29:15.396Z,29.26
2022-08-02T14:31:44.798Z,29.14
2022-08-02T14:34:13.835Z,29.12
2022-08-02T14:36:41.802Z,29.48
2022-08-02T14:39:08.800Z,29.36
2022-08-02T14:41:58.270Z,29.55
2022-08-02T14:44:25.058Z,29.50
2022-08-02T14:46:52.633Z,29.79
2022-08-02T14:49:25.886Z,29.80
2022-08-02T14:51:57.411Z,29.08
2022-08-02T14:54:30.640Z,29.22
2022-08-02T14:57:00.868Z,29.44
2022-08-02T14:59:28.167Z,29.76
2022-08-02T15:01:55.528Z,29.68
2022-08-02T15:04:22.449Z,29.72
2022-08-02T15:06:49.153Z,30.06
2022-08-02T15:09:15.964Z,29.62
2022-08-02T15:11:47.627Z,29.60
2022-08-02T15:14:21.796Z,28.96
2022-08-02T15:16:58.370Z,29.17
2022-08-02T15:19:58.943Z,29.48
2022-08-02T15:22:19.035Z,29.64
2022-08-02T15:24:47.481Z,29.47
2022-08-02T15:27:15.069Z,29.58
2022-08-02T15:29:46.783Z,30.07
2022-08-02T15:32:17.595Z,29.97
2022-08-02T15:34:44.838Z,30.03
2022-08-02T15:37:12.114Z,29.90
2022-08-02T15:39:38.932Z,29.97
2022-08-02T15:42:05.784Z,29.92
2022-08-02T15:44:32.676Z,29.94
2022-08-02T15:46:59.456Z,30.14
2022-08-02T15:49:27.053Z,30.07
2022-08-02T15:51:56.574Z,30.45
2022-08-02T15:54:24.027Z,30.63
2022-08-02T15:56:51.084Z,30.26
2022-08-02T15:59:18.022Z,30.71
2022-08-02T16:01:48.223Z,30.49
2022-08-02T16:04:16.258Z,30.83
2022-08-02T16:06:44.152Z,30.70
2022-08-02T16:09:14.451Z,30.72
2022-08-02T16:11:41.418Z,31.01
2022-08-02T16:14:08.449Z,30.93
2022-08-02T16:16:36.795Z,30.65
2022-08-02T16:19:47.286Z,30.88
2022-08-02T16:21:54.105Z,30.76
2022-08-02T16:24:21.495Z,30.95
2022-08-02T16:26:48.494Z,30.61
2022-08-02T16:29:19.376Z,30.89
2022-08-02T16:31:47.693Z,30.81
2022-08-02T16:34:15.537Z,30.69
2022-08-02T16:36:42.415Z,30.48
2022-08-02T16:39:09.148Z,30.72
2022-08-02T16:41:50.966Z,30.53
2022-08-02T16:44:29.730Z,30.59
2022-08-02T16:47:12.173Z,30.48
2022-08-02T16:50:07.050Z,30.88
2022-08-02T16:52:32.665Z,30.92
2022-08-02T16:55:00.264Z,31.16
2022-08-02T16:57:43.191Z,31.12
2022-08-02T17:00:13.875Z,30.95
2022-08-02T17:02:42.977Z,31.24
2022-08-02T17:05:14.368Z,31.31
2022-08-02T17:10:30.436Z,31.46
2022-08-02T17:12:57.935Z,31.44
2022-08-02T17:16:17.059Z,31.36
2022-08-02T17:18:14.240Z,31.43
2022-08-02T17:20:41.483Z,31.61
2022-08-02T17:23:08.985Z,31.54
2022-08-02T17:25:43.489Z,31.58
2022-08-02T17:28:19.642Z,31.43
2022-08-02T17:30:46.498Z,31.60
2022-08-02T17:33:13.387Z,31.73
2022-08-02T17:35:51.927Z,31.75
2022-08-02T17:38:26.070Z,31.92
2022-08-02T17:40:55.422Z,31.73
2022-08-02T17:43:22.343Z,31.87
2022-08-02T17:46:00.295Z,32.04
2022-08-02T17:49:01.359Z,32.19
2022-08-02T17:52:15.826Z,32.31
2022-08-02T17:54:18.888Z,32.32
2022-08-02T17:56:48.094Z,32.37
2022-08-02T17:59:30.843Z,32.70
2022-08-02T18:02:01.286Z,32.58
2022-08-02T18:04:32.026Z,32.92
2022-08-02T18:07:04.102Z,33.04
2022-08-02T18:09:32.707Z,32.81
2022-08-02T18:12:01.386Z,32.92
2022-08-02T18:14:28.229Z,33.30
2022-08-02T18:16:55.179Z,33.12
2022-08-02T18:19:22.537Z,33.03
2022-08-02T18:21:49.507Z,33.30
2022-08-02T18:24:16.547Z,33.36
2022-08-02T18:26:43.671Z,33.56
2022-08-02T18:29:12.223Z,33.79
2022-08-02T18:31:50.962Z,33.57
2022-08-02T18:34:24.311Z,34.07
2022-08-02T18:36:51.425Z,33.60
2022-08-02T18:39:18.273Z,33.81
2022-08-02T18:41:47.759Z,33.78
2022-08-02T18:44:16.648Z,34.13
2022-08-02T18:46:45.323Z,34.10
2022-08-02T18:49:14.833Z,34.09
2022-08-02T18:51:43.574Z,34.55
2022-08-02T18:54:10.399Z,34.16
2022-08-02T18:56:38.854Z,34.45
2022-08-02T18:59:07.372Z,34.60
2022-08-02T19:01:39.481Z,34.51
2022-08-02T19:04:13.619Z,34.29
2022-08-02T19:06:41.058Z,34.36
2022-08-02T19:09:12.979Z,34.50
2022-08-02T19:11:47.979Z,34.74
2022-08-02T19:14:27.153Z,35.06
2022-08-02T19:17:53.164Z,34.88
2022-08-02T19:19:47.378Z,35.33
2022-08-02T19:22:17.646Z,35.02
2022-08-02T19:24:52.331Z,35.33
2022-08-02T19:27:25.717Z,35.22
2022-08-02T19:29:53.745Z,35.00
2022-08-02T19:32:42.032Z,35.10
2022-08-02T19:35:19.505Z,35.16
2022-08-02T19:38:05.441Z,35.36
2022-08-02T19:40:32.252Z,35.95
2022-08-02T19:45:49.841Z,35.73
2022-08-02T19:48:24.482Z,35.97
2022-08-02T19:50:56.254Z,36.05
2022-08-02T19:53:29.244Z,36.50
2022-08-02T19:56:20.595Z,36.29
2022-08-02T19:58:51.520Z,36.45
2022-08-02T20:01:25.288Z,36.25
2022-08-02T20:03:55.063Z,36.46
2022-08-02T20:06:30.018Z,36.71
2022-08-02T20:09:00.966Z,37.10
2022-08-02T20:11:34.366Z,37.00
2022-08-02T20:14:07.331Z,37.21
2022-08-02T20:16:35.727Z,37.80
2022-08-02T20:19:06.560Z,37.79
2022-08-02T20:24:21.317Z,37.83
2022-08-02T20:26:53.560Z,38.26
2022-08-02T20:29:43.340Z,38.01
2022-08-02T20:32:07.839Z,37.80
2022-08-02T20:34:36.349Z,37.84
2022-08-02T20:37:59.089Z,37.80
2022-08-02T20:39:51.719Z,38.07
2022-08-02T20:42:23.242Z,38.03
2022-08-02T20:44:54.271Z,38.22
2022-08-02T20:47:36.731Z,38.11
2022-08-02T20:53:23.943Z,38.77
2022-08-02T20:55:54.754Z,38.89
2022-08-02T20:58:26.949Z,38.83
2022-08-02T21:00:59.366Z,39.05
2022-08-02T21:03:32.373Z,38.88
2022-08-02T21:06:15.104Z,38.90
2022-08-02T21:08:46.237Z,39.61
2022-08-02T21:11:13.892Z,39.94
2022-08-02T21:13:46.845Z,39.65
2022-08-02T21:16:19.144Z,39.64
2022-08-02T21:18:48.599Z,40.07
2022-08-02T21:21:16.816Z,40.17
2022-08-02T21:23:48.463Z,40.37
2022-08-02T21:26:25.700Z,40.78
2022-08-02T21:28:56.380Z,40.82
2022-08-02T21:31:23.211Z,40.70
2022-08-02T21:33:59.363Z,40.46
2022-08-02T21:36:34.001Z,40.69
2022-08-02T21:39:04.940Z,41.15
2022-08-02T21:41:38.824Z,41.07
2022-08-02T21:44:12.857Z,41.37
2022-08-02T21:46:44.330Z,41.18
2022-08-02T21:49:12.560Z,41.58
2022-08-02T21:51:42.763Z,41.53
2022-08-02T21:54:17.646Z,41.84
2022-08-02T21:56:52.006Z,41.51
2022-08-02T21:59:25.248Z,41.53
2022-08-02T22:01:53.983Z,41.75
2022-08-02T22:04:21.954Z,41.72
2022-08-02T22:06:49.365Z,41.72
2022-08-02T22:09:43.655Z,42.22
2022-08-02T22:12:09.826Z,42.40
2022-08-02T22:14:40.002Z,42.44
2022-08-02T22:17:13.714Z,42.48
2022-08-02T22:19:51.098Z,42.47
2022-08-02T22:22:28.342Z,42.82
2022-08-02T22:24:57.368Z,42.97
2022-08-02T22:28:35.942Z,43.14
2022-08-02T22:30:11.999Z,43.26
2022-08-02T22:32:57.895Z,43.03
2022-08-02T22:35:24.735Z,43.05
2022-08-02T22:38:15.321Z,43.07
2022-08-02T22:40:39.725Z,43.58
2022-08-02T22:43:07.531Z,43.19
2022-08-02T22:45:37.638Z,43.67
2022-08-02T22:48:05.803Z,43.78
2022-08-02T22:50:33.569Z,43.98
2022-08-02T22:53:03.080Z,43.77
2022-08-02T22:55:32.093Z,43.77
2022-08-02T22:57:59.275Z,43.71
2022-08-02T22:58:36.988Z,31.28
2022-08-02T22:59:06.196Z,38.32
2022-08-02T22:59:06.415Z,35.71
2022-08-02T22:59:07.584Z,37.93
2022-08-02T23:00:26.590Z,43.92
2022-08-02T23:02:53.586Z,43.67
2022-08-02T23:05:21.831Z,43.81
2022-08-02T23:07:48.598Z,43.87
2022-08-02T23:10:15.536Z,44.15
2022-08-02T23:12:42.434Z,43.89
2022-08-02T23:15:09.957Z,43.86
2022-08-02T23:17:55.464Z,43.98
2022-08-02T23:20:22.812Z,44.55
2022-08-02T23:22:49.554Z,44.46
2022-08-02T23:25:16.631Z,44.67
2022-08-02T23:27:50.446Z,44.81
2022-08-02T23:30:18.751Z,44.77
2022-08-02T23:32:46.946Z,44.99
2022-08-02T23:35:16.986Z,45.04
2022-08-02T23:37:59.023Z,45.56
2022-08-02T23:40:39.844Z,45.61
2022-08-02T23:43:14.127Z,45.56
2022-08-02T23:45:46.519Z,45.60
2022-08-02T23:48:13.575Z,45.62
2022-08-02T23:50:40.335Z,45.67
2022-08-02T23:53:07.647Z,45.69
2022-08-02T23:55:34.651Z,46.03
2022-08-02T23:58:01.372Z,46.15
